Lynchburg Regional Preston Glenn Field
KLYH : now visible

Airfield :











YOU CAN JOIN US ON...

 
LOGIN :

Register | Disclaimer

   EN    FR    IT 

 









Legend :    VFR   Marginal VFR   IFR   Intensive IFR   Very Intensive IFR
Visi :
Ceiling :
>= 8 km
>= 3000ft
5 to 8 km
1000 to 3000 ft
1500m to 5 km
500 to 1000 ft
800 to 1500m
200 to 500 ft
< 800m
< 200 ft
Symbols :   Thunderstorms  Fog  Heavy snow  Heavy precipitations  Wind > 20 kt






- Airport Elevation : 938 ft
- IATA code : LYH


KLYH - Lynchburg Regional Preston Glenn Field

CURRENT METAR :
  • 280506Z AUTO 12010G14KT 9SM -RA OVC007 22/21 A3003 RMK AO2 CIG 004V011 P0003 T02170206

EXPIRED METARs :
  • 280354Z AUTO 06006KT 3SM RA BR BKN007 OVC013 21/20 A3006 RMK AO2 SLP169 P0013 T02110200
  • 280341Z AUTO 08005KT 4SM RA BR BKN007 BKN013 OVC019 21/20 A3006 RMK AO2 P0008 T02110200
  • 280331Z AUTO 08007KT 2 1/2SM RA BR BKN007 BKN013 OVC020 22/20 A3006 RMK AO2 VIS 2V5 P0005 T02170200
  • 280313Z AUTO 07007KT 2 1/2SM -RA BR SCT008 BKN013 OVC019 21/20 A3007 RMK AO2 P0003 T02110200
  • 280254Z AUTO 07009KT 4SM -RA BR BKN006 BKN012 OVC033 21/19 A3007 RMK AO2 SLP175 P0005 60012 T02110194 55007
  • 280222Z 05012G18KT 10SM -RA BKN008 OVC014 21/19 A3007 RMK AO2 CIG 005V010 P0004 T02110194

TAF KLYH
Valid from the 28 at 03:00 until the 29 at 00:00 UTC


280244Z 2803/2824 05012G18KT P6SM -RA BKN008 OVC014
FM281000 15013G26KT 5SM -SHRA BR OVC005
FM281200 18010KT 4SM BR OVC007
FM281400 19010KT 6SM BR BKN016
FM281900 18010KT P6SM SCT018 BKN035
KZDC FIR / North America



MET'MAP, your aeronautical weather chart ! - Copyright ORBIFLY December 2007 - Disclaimer

ORBIFLY MET'MAP TEAM :

Programming & Development : Alexandra Zaïnal
Concept & original design : Baudouin d'Aumeries
Assistance for programming : Marc-Olivier Méhu
Technical & hardware support : Manuel Goepfert

Contact : metmap@orbifly.com




SOURCES & CREDITS :

   NOAA       Earth
Advisory